Time;durP1;ratioP1;P1;durP2;ratioP2;P2;SDS_P1;SDS_P2;PMS_P1;PMS_P2;Temp;Humidity;BMP_temperature;BMP_pressure;BME280_temperature;BME280_humidity;BME280_pressure;Samples;Min_cycle;Max_cycle;Signal;HPM_P1;HPM_P2
2022/09/29 00:02:18;;;;;;;11.23;2.60;;;;;;;;;;5003794;28;20072;-65
2022/09/29 00:04:44;;;;;;;9.93;2.60;;;;;;;;;;5005664;28;20398;-64
2022/09/29 00:07:11;;;;;;;7.80;2.20;;;;;;;;;;5004932;28;20104;-64
2022/09/29 00:09:38;;;;;;;7.95;2.45;;;;;;;;;;5005442;28;20128;-64
2022/09/29 00:12:04;;;;;;;7.47;2.30;;;;;;;;;;5005589;28;20038;-66
2022/09/29 00:14:31;;;;;;;11.80;2.58;;;;;;;;;;5003843;28;20500;-66
2022/09/29 00:16:58;;;;;;;5.80;2.60;;;;;;;;;;5004874;28;20735;-66
2022/09/29 00:19:26;;;;;;;13.52;2.70;;;;;;;;;;5005750;28;20038;-66
2022/09/29 00:21:52;;;;;;;8.50;2.83;;;;;;;;;;5004069;28;20481;-64
2022/09/29 00:24:19;;;;;;;9.35;3.30;;;;;;;;;;5005981;28;20112;-65
2022/09/29 00:26:46;;;;;;;10.60;2.75;;;;;;;;;;4991527;28;20050;-65
2022/09/29 00:29:13;;;;;;;10.00;2.88;;;;;;;;;;5009519;28;20041;-65
2022/09/29 00:31:39;;;;;;;13.13;3.05;;;;;;;;;;4989715;28;20449;-66
2022/09/29 00:34:06;;;;;;;10.90;2.72;;;;;;;;;;5010578;28;20050;-65
2022/09/29 00:36:32;;;;;;;12.93;2.50;;;;;;;;;;5009786;28;20056;-64
2022/09/29 00:38:59;;;;;;;13.98;3.00;;;;;;;;;;5008786;28;20034;-65
2022/09/29 00:41:27;;;;;;;11.13;3.05;;;;;;;;;;5002905;28;20467;-66
2022/09/29 00:43:58;;;;;;;10.00;3.00;;;;;;;;;;5009767;28;20056;-65
2022/09/29 00:46:40;;;;;;;11.43;3.00;;;;;;;;;;5008968;28;20426;-65
2022/09/29 00:49:10;;;;;;;11.25;3.60;;;;;;;;;;5008858;28;20064;-66
2022/09/29 00:51:39;;;;;;;16.95;6.63;;;;;;;;;;5006894;28;20085;-66
2022/09/29 00:54:06;;;;;;;13.35;4.45;;;;;;;;;;5007299;28;20583;-66
2022/09/29 00:56:33;;;;;;;10.63;3.38;;;;;;;;;;5006988;28;20063;-67
2022/09/29 00:59:05;;;;;;;12.77;3.80;;;;;;;;;;5008514;28;20061;-65
2022/09/29 01:01:32;;;;;;;10.90;3.17;;;;;;;;;;5004920;28;20117;-68
2022/09/29 01:04:01;;;;;;;7.15;2.67;;;;;;;;;;5006178;28;20095;-64
2022/09/29 01:06:36;;;;;;;14.65;3.22;;;;;;;;;;4989996;28;20359;-66
2022/09/29 01:09:04;;;;;;;10.32;3.30;;;;;;;;;;5003880;28;20129;-66
2022/09/29 01:11:31;;;;;;;8.73;3.03;;;;;;;;;;4996117;28;20045;-65
2022/09/29 01:14:02;;;;;;;9.10;2.92;;;;;;;;;;5004630;28;20180;-65
2022/09/29 01:16:31;;;;;;;13.73;3.10;;;;;;;;;;5008262;28;20042;-65
2022/09/29 01:18:59;;;;;;;14.50;2.80;;;;;;;;;;4992243;28;20957;-65
2022/09/29 01:21:36;;;;;;;9.90;2.63;;;;;;;;;;5004793;28;20042;-66
2022/09/29 01:24:21;;;;;;;10.13;2.65;;;;;;;;;;5006441;28;20568;-65
2022/09/29 01:26:51;;;;;;;11.68;2.95;;;;;;;;;;5007271;28;20049;-65
2022/09/29 01:29:20;;;;;;;19.73;3.20;;;;;;;;;;5006622;28;20069;-66
2022/09/29 01:31:47;;;;;;;10.40;2.97;;;;;;;;;;5005480;28;20322;-68
2022/09/29 01:34:19;;;;;;;9.57;3.22;;;;;;;;;;5006783;28;20156;-65
2022/09/29 01:37:08;;;;;;;10.73;2.88;;;;;;;;;;4991623;28;20056;-66
2022/09/29 01:39:38;;;;;;;10.13;2.92;;;;;;;;;;5005700;28;20394;-67
2022/09/29 01:42:08;;;;;;;21.52;5.40;;;;;;;;;;5007639;28;20038;-64
2022/09/29 01:44:50;;;;;;;9.63;2.88;;;;;;;;;;5007483;28;20437;-66
2022/09/29 01:47:26;;;;;;;11.07;3.03;;;;;;;;;;4990048;28;20034;-63
2022/09/29 01:50:12;;;;;;;12.18;2.88;;;;;;;;;;5006871;28;20144;-65
2022/09/29 01:52:42;;;;;;;10.75;3.47;;;;;;;;;;5007777;28;20053;-65
2022/09/29 01:55:11;;;;;;;8.90;2.97;;;;;;;;;;5022449;28;20046;-66
2022/09/29 01:57:38;;;;;;;11.85;3.90;;;;;;;;;;5004325;28;20057;-66
2022/09/29 02:00:11;;;;;;;17.83;4.32;;;;;;;;;;5023777;28;20068;-65
2022/09/29 02:02:44;;;;;;;11.55;3.30;;;;;;;;;;5020576;28;20599;-64
2022/09/29 02:05:22;;;;;;;11.85;3.50;;;;;;;;;;5004960;28;20038;-66
2022/09/29 02:07:49;;;;;;;6.25;2.60;;;;;;;;;;5004986;28;20116;-65
2022/09/29 02:10:19;;;;;;;20.23;3.60;;;;;;;;;;5021324;28;20064;-63
2022/09/29 02:12:46;;;;;;;10.45;3.72;;;;;;;;;;5021608;28;20116;-63
2022/09/29 02:15:16;;;;;;;12.93;3.65;;;;;;;;;;5021586;28;20124;-65
2022/09/29 02:17:45;;;;;;;9.45;3.00;;;;;;;;;;5021954;28;20722;-65
2022/09/29 02:20:13;;;;;;;13.77;2.78;;;;;;;;;;5021877;28;20034;-65
2022/09/29 02:22:40;;;;;;;8.65;2.95;;;;;;;;;;5020329;28;20037;-65
2022/09/29 02:25:08;;;;;;;8.18;2.78;;;;;;;;;;5005714;28;20517;-66
2022/09/29 02:27:35;;;;;;;15.65;3.42;;;;;;;;;;5011805;28;20068;-64
2022/09/29 02:30:02;;;;;;;10.95;2.80;;;;;;;;;;5014544;28;20045;-66
2022/09/29 02:32:31;;;;;;;9.30;2.45;;;;;;;;;;5012845;28;20049;-67
2022/09/29 02:34:57;;;;;;;13.05;4.95;;;;;;;;;;5005726;28;20049;-67
2022/09/29 02:37:30;;;;;;;12.35;4.80;;;;;;;;;;5005054;28;20050;-65
2022/09/29 02:39:57;;;;;;;;;;;;;;;;;;5005491;28;20208;-65
2022/09/29 02:42:29;;;;;;;9.68;2.60;;;;;;;;;;4985594;28;20196;-65
2022/09/29 02:45:21;;;;;;;7.10;2.63;;;;;;;;;;5005661;28;20377;-64
2022/09/29 02:48:06;;;;;;;11.30;3.10;;;;;;;;;;5004280;28;20041;-64
2022/09/29 02:50:48;;;;;;;10.27;2.55;;;;;;;;;;5004244;28;20052;-65
2022/09/29 02:53:22;;;;;;;14.37;2.57;;;;;;;;;;5005318;28;20056;-65
2022/09/29 02:56:01;;;;;;;7.53;2.50;;;;;;;;;;5003689;28;20041;-63
2022/09/29 02:58:32;;;;;;;6.45;2.25;;;;;;;;;;5005638;28;20062;-63
2022/09/29 03:00:59;;;;;;;5.75;2.90;;;;;;;;;;4985839;28;20576;-64
2022/09/29 03:03:26;;;;;;;8.30;2.90;;;;;;;;;;5004416;28;20056;-65
2022/09/29 03:05:53;;;;;;;8.40;2.70;;;;;;;;;;5005132;28;20029;-67
2022/09/29 03:08:20;;;;;;;14.02;5.03;;;;;;;;;;5005028;28;20483;-67
2022/09/29 03:11:06;;;;;;;8.07;2.60;;;;;;;;;;4967204;28;20037;-71
2022/09/29 03:13:53;;;;;;;10.43;5.75;;;;;;;;;;4905332;29;20107;-68
2022/09/29 03:16:19;;;;;;;16.35;4.90;;;;;;;;;;4928462;28;20049;-70
2022/09/29 03:18:47;;;;;;;8.75;2.60;;;;;;;;;;4928762;28;20386;-69
2022/09/29 03:21:13;;;;;;;13.80;2.67;;;;;;;;;;4915277;29;20047;-67
2022/09/29 03:23:40;;;;;;;8.18;2.80;;;;;;;;;;4927381;28;20046;-71
2022/09/29 03:26:07;;;;;;;9.00;2.60;;;;;;;;;;4928968;28;20048;-70
2022/09/29 03:28:34;;;;;;;7.72;2.75;;;;;;;;;;4926984;28;20939;-68
2022/09/29 03:31:05;;;;;;;9.23;2.45;;;;;;;;;;4928051;28;20914;-68
2022/09/29 03:33:32;;;;;;;10.70;2.83;;;;;;;;;;4928750;28;20047;-67
2022/09/29 03:35:59;;;;;;;6.60;2.47;;;;;;;;;;4929053;28;20097;-68
2022/09/29 03:38:25;;;;;;;8.80;2.63;;;;;;;;;;4927334;28;20046;-68
2022/09/29 03:40:52;;;;;;;8.02;2.75;;;;;;;;;;4926721;28;20405;-69
2022/09/29 03:43:18;;;;;;;7.10;2.65;;;;;;;;;;4928232;28;20117;-67
2022/09/29 03:45:52;;;;;;;6.70;2.80;;;;;;;;;;4925976;28;20055;-67
2022/09/29 03:48:19;;;;;;;12.98;3.20;;;;;;;;;;4944267;28;20046;-69
2022/09/29 03:50:47;;;;;;;7.35;2.60;;;;;;;;;;4978585;28;20038;-69
2022/09/29 03:53:14;;;;;;;8.50;2.67;;;;;;;;;;5004939;28;20120;-68
2022/09/29 03:55:40;;;;;;;12.40;2.72;;;;;;;;;;5002933;28;20042;-69
2022/09/29 03:58:07;;;;;;;6.40;2.70;;;;;;;;;;5005256;28;20122;-68
2022/09/29 04:00:34;;;;;;;11.55;3.58;;;;;;;;;;5003315;28;20125;-68
2022/09/29 04:03:00;;;;;;;11.10;2.88;;;;;;;;;;5009516;28;20690;-67
2022/09/29 04:05:27;;;;;;;9.93;2.63;;;;;;;;;;4991808;28;20710;-67
2022/09/29 04:07:54;;;;;;;6.97;2.90;;;;;;;;;;5009623;28;20069;-68
2022/09/29 04:10:21;;;;;;;8.98;3.15;;;;;;;;;;5009427;28;20041;-69
2022/09/29 04:12:48;;;;;;;13.38;3.28;;;;;;;;;;5008508;28;20037;-68
2022/09/29 04:15:14;;;;;;;6.55;2.45;;;;;;;;;;5008569;28;20088;-68
2022/09/29 04:17:42;;;;;;;23.48;2.85;;;;;;;;;;5005833;28;20069;-68
2022/09/29 04:20:09;;;;;;;24.17;3.92;;;;;;;;;;4998168;28;20065;-69
2022/09/29 04:22:35;;;;;;;10.68;3.95;;;;;;;;;;5008407;28;20056;-71
2022/09/29 04:25:02;;;;;;;9.63;2.95;;;;;;;;;;5005710;28;20045;-70
2022/09/29 04:27:28;;;;;;;8.60;2.75;;;;;;;;;;4985735;28;20041;-67
2022/09/29 04:29:55;;;;;;;9.57;3.00;;;;;;;;;;4983462;28;20049;-68
2022/09/29 04:32:23;;;;;;;9.82;3.00;;;;;;;;;;4970996;28;20426;-67
2022/09/29 04:34:50;;;;;;;8.38;2.78;;;;;;;;;;4981319;28;21889;-68
2022/09/29 04:37:17;;;;;;;17.20;3.17;;;;;;;;;;4985600;28;20125;-67
2022/09/29 04:39:43;;;;;;;8.88;2.67;;;;;;;;;;4974238;28;20065;-67
2022/09/29 04:42:10;;;;;;;14.18;3.42;;;;;;;;;;4968935;28;20112;-69
2022/09/29 04:44:36;;;;;;;10.00;2.90;;;;;;;;;;4983522;28;20104;-68
2022/09/29 04:47:03;;;;;;;12.45;2.83;;;;;;;;;;4978224;28;20089;-67
2022/09/29 04:49:30;;;;;;;10.70;2.83;;;;;;;;;;4976934;28;20485;-66
2022/09/29 04:51:56;;;;;;;10.95;2.63;;;;;;;;;;4984332;28;20037;-67
2022/09/29 04:54:23;;;;;;;7.75;2.60;;;;;;;;;;4984055;28;20054;-68
2022/09/29 04:56:50;;;;;;;8.43;2.80;;;;;;;;;;4983930;28;20919;-67
2022/09/29 04:59:17;;;;;;;9.40;3.03;;;;;;;;;;4987149;28;20554;-67
2022/09/29 05:01:44;;;;;;;9.80;2.50;;;;;;;;;;4987991;28;20049;-68
2022/09/29 05:04:12;;;;;;;9.38;2.60;;;;;;;;;;4988680;28;20039;-66
2022/09/29 05:06:38;;;;;;;11.13;2.95;;;;;;;;;;4987813;28;20069;-68
2022/09/29 05:09:06;;;;;;;10.43;2.72;;;;;;;;;;4991436;28;20038;-68
2022/09/29 05:11:32;;;;;;;13.15;2.83;;;;;;;;;;4987359;28;20068;-68
2022/09/29 05:13:59;;;;;;;11.77;2.97;;;;;;;;;;5001037;28;20056;-69
2022/09/29 05:16:26;;;;;;;6.70;2.55;;;;;;;;;;4987948;28;20049;-70
2022/09/29 05:18:52;;;;;;;11.90;3.30;;;;;;;;;;4989957;28;20065;-68
2022/09/29 05:21:19;;;;;;;9.48;3.15;;;;;;;;;;4989735;28;20606;-68
2022/09/29 05:23:45;;;;;;;15.43;3.05;;;;;;;;;;4987600;28;20038;-69
2022/09/29 05:26:13;;;;;;;15.45;3.38;;;;;;;;;;4987753;28;20034;-67
2022/09/29 05:28:42;;;;;;;10.95;3.17;;;;;;;;;;4987735;28;20399;-67
2022/09/29 05:31:09;;;;;;;14.25;3.53;;;;;;;;;;4988176;28;20553;-68
2022/09/29 05:33:36;;;;;;;11.00;3.47;;;;;;;;;;4988307;28;20141;-68
2022/09/29 05:36:10;;;;;;;11.30;2.88;;;;;;;;;;4988360;28;20114;-67
2022/09/29 05:38:37;;;;;;;8.40;2.55;;;;;;;;;;4987607;28;20065;-68
2022/09/29 05:41:08;;;;;;;9.68;2.90;;;;;;;;;;5001376;28;20411;-67
2022/09/29 05:43:35;;;;;;;7.03;2.83;;;;;;;;;;4989536;28;20035;-67
2022/09/29 05:46:02;;;;;;;9.55;2.97;;;;;;;;;;4989377;28;20499;-68
2022/09/29 05:48:29;;;;;;;6.68;2.70;;;;;;;;;;4987645;28;20403;-68
2022/09/29 05:50:56;;;;;;;12.93;2.80;;;;;;;;;;4988082;28;20072;-69
2022/09/29 05:53:23;;;;;;;12.52;3.10;;;;;;;;;;4989774;28;20120;-69
2022/09/29 05:55:49;;;;;;;15.63;3.15;;;;;;;;;;4989816;28;20035;-69
2022/09/29 05:58:16;;;;;;;13.60;3.03;;;;;;;;;;5001095;28;20061;-68
2022/09/29 06:00:43;;;;;;;9.40;3.20;;;;;;;;;;5007919;28;20054;-67
2022/09/29 06:03:09;;;;;;;12.65;3.35;;;;;;;;;;5009898;28;20041;-68
2022/09/29 06:05:39;;;;;;;17.58;3.50;;;;;;;;;;5007776;28;20099;-67
2022/09/29 06:08:06;;;;;;;8.32;3.15;;;;;;;;;;5011444;28;20095;-67
2022/09/29 06:10:33;;;;;;;11.70;3.38;;;;;;;;;;5011782;28;20068;-68
2022/09/29 06:13:02;;;;;;;10.48;3.13;;;;;;;;;;5013457;28;20037;-68
2022/09/29 06:15:28;;;;;;;13.63;3.03;;;;;;;;;;5008267;28;20060;-68
2022/09/29 06:17:56;;;;;;;13.05;3.38;;;;;;;;;;5010587;28;20037;-67
2022/09/29 06:20:22;;;;;;;13.15;3.00;;;;;;;;;;5008699;28;20474;-68
2022/09/29 06:22:50;;;;;;;10.95;3.10;;;;;;;;;;5008388;28;20038;-67
2022/09/29 06:25:17;;;;;;;10.35;3.25;;;;;;;;;;5008532;28;20095;-67
2022/09/29 06:27:43;;;;;;;13.25;3.38;;;;;;;;;;5008947;28;20038;-67
2022/09/29 06:30:12;;;;;;;12.77;3.15;;;;;;;;;;5009822;28;20115;-68
2022/09/29 06:32:38;;;;;;;13.77;3.30;;;;;;;;;;5007351;28;20612;-69
2022/09/29 06:37:50;;;;;;;7.85;3.50;;;;;;;;;;5008626;28;20048;-68
2022/09/29 06:40:20;;;;;;;13.38;3.42;;;;;;;;;;4999026;28;20049;-67
2022/09/29 06:42:47;;;;;;;16.98;3.78;;;;;;;;;;5003785;28;20520;-68
2022/09/29 06:45:14;;;;;;;15.98;3.65;;;;;;;;;;4967385;28;20042;-68
2022/09/29 06:47:41;;;;;;;15.13;3.28;;;;;;;;;;4992163;28;20494;-68
2022/09/29 06:50:08;;;;;;;10.10;3.25;;;;;;;;;;4990364;28;20074;-68
2022/09/29 06:52:35;;;;;;;13.95;3.75;;;;;;;;;;5006692;28;20033;-69
2022/09/29 06:55:01;;;;;;;8.52;2.92;;;;;;;;;;5006815;28;20046;-69
2022/09/29 06:57:29;;;;;;;10.73;2.97;;;;;;;;;;4988722;28;20050;-68
2022/09/29 06:59:56;;;;;;;14.50;2.97;;;;;;;;;;5006397;28;20045;-69
2022/09/29 07:02:22;;;;;;;12.38;3.40;;;;;;;;;;4996160;28;20448;-69
2022/09/29 07:04:49;;;;;;;12.77;3.05;;;;;;;;;;5006018;28;20049;-68
2022/09/29 07:07:16;;;;;;;11.15;3.03;;;;;;;;;;5007506;28;20046;-67
2022/09/29 07:09:43;;;;;;;8.52;2.80;;;;;;;;;;5007798;28;20108;-66
2022/09/29 07:12:10;;;;;;;11.98;3.38;;;;;;;;;;5004327;28;20528;-67
2022/09/29 07:14:37;;;;;;;14.50;2.90;;;;;;;;;;5006029;28;20046;-67
2022/09/29 07:17:04;;;;;;;13.05;3.03;;;;;;;;;;5006708;28;20236;-66
2022/09/29 07:19:31;;;;;;;11.73;2.85;;;;;;;;;;5005780;28;20061;-68
2022/09/29 07:21:58;;;;;;;12.05;3.25;;;;;;;;;;5003138;28;20449;-68
2022/09/29 07:24:25;;;;;;;9.63;3.05;;;;;;;;;;5005964;28;20123;-67
2022/09/29 07:26:52;;;;;;;7.20;3.00;;;;;;;;;;5007023;28;20045;-67
2022/09/29 07:29:18;;;;;;;12.32;2.95;;;;;;;;;;5007006;28;20045;-67
2022/09/29 07:31:45;;;;;;;14.05;2.92;;;;;;;;;;5005139;28;20041;-67
2022/09/29 07:34:11;;;;;;;6.35;2.60;;;;;;;;;;5006468;28;20506;-68
2022/09/29 07:36:38;;;;;;;14.18;3.25;;;;;;;;;;5005432;28;21111;-68
2022/09/29 07:39:05;;;;;;;12.60;2.90;;;;;;;;;;5006531;28;20068;-67
2022/09/29 07:41:31;;;;;;;9.13;2.88;;;;;;;;;;5004033;28;20042;-67
2022/09/29 07:43:58;;;;;;;10.50;3.20;;;;;;;;;;5005349;28;20092;-67
2022/09/29 07:46:25;;;;;;;12.98;2.88;;;;;;;;;;5004747;28;20528;-68
2022/09/29 07:48:51;;;;;;;9.65;3.10;;;;;;;;;;5005294;28;20053;-68
2022/09/29 07:51:19;;;;;;;8.88;2.90;;;;;;;;;;5005115;28;20071;-68
2022/09/29 07:53:46;;;;;;;8.85;3.50;;;;;;;;;;5004410;28;20160;-68
2022/09/29 07:56:14;;;;;;;10.10;2.67;;;;;;;;;;5006509;28;20044;-67
2022/09/29 07:58:41;;;;;;;11.10;3.25;;;;;;;;;;5003975;28;20529;-67
2022/09/29 08:01:11;;;;;;;13.65;3.00;;;;;;;;;;5005242;28;20548;-67
2022/09/29 08:03:41;;;;;;;15.10;3.10;;;;;;;;;;5003951;28;20045;-67
2022/09/29 08:06:08;;;;;;;11.80;2.75;;;;;;;;;;5001785;28;20038;-67
2022/09/29 08:08:38;;;;;;;9.68;3.03;;;;;;;;;;5004006;28;20053;-68
2022/09/29 08:11:12;;;;;;;9.65;2.90;;;;;;;;;;5004249;28;20501;-68
2022/09/29 08:13:39;;;;;;;8.57;3.03;;;;;;;;;;4985321;28;20052;-66
2022/09/29 08:16:06;;;;;;;9.38;3.90;;;;;;;;;;5004736;28;20578;-68
2022/09/29 08:18:33;;;;;;;15.13;3.00;;;;;;;;;;5000878;28;20125;-67
2022/09/29 08:21:00;;;;;;;11.13;3.25;;;;;;;;;;5004678;28;20041;-67
2022/09/29 08:23:30;;;;;;;12.95;3.05;;;;;;;;;;4987072;28;20037;-67
2022/09/29 08:26:01;;;;;;;12.05;3.10;;;;;;;;;;5005538;28;20033;-68
2022/09/29 08:28:29;;;;;;;11.82;3.97;;;;;;;;;;5002531;28;20212;-67
2022/09/29 08:30:55;;;;;;;10.77;3.35;;;;;;;;;;5006716;28;20877;-67
2022/09/29 08:33:22;;;;;;;7.75;3.03;;;;;;;;;;4983928;28;20049;-67
2022/09/29 08:35:56;;;;;;;13.05;3.58;;;;;;;;;;5006290;28;20114;-67
2022/09/29 08:38:22;;;;;;;15.40;3.60;;;;;;;;;;4988711;28;20038;-67
2022/09/29 08:40:49;;;;;;;12.02;3.60;;;;;;;;;;5003591;28;20402;-68
2022/09/29 08:43:24;;;;;;;12.45;3.25;;;;;;;;;;5005805;28;20037;-67
2022/09/29 08:45:56;;;;;;;9.50;3.35;;;;;;;;;;5002424;28;20145;-67
2022/09/29 08:48:25;;;;;;;13.60;3.67;;;;;;;;;;5004649;28;20033;-67
2022/09/29 08:51:26;;;;;;;11.90;3.63;;;;;;;;;;4984044;28;20217;-67
2022/09/29 08:53:56;;;;;;;9.45;3.25;;;;;;;;;;4969352;28;20058;-68
2022/09/29 08:56:23;;;;;;;15.10;3.40;;;;;;;;;;4978265;28;20897;-69
2022/09/29 08:58:51;;;;;;;13.35;3.90;;;;;;;;;;4981863;28;20050;-67
2022/09/29 09:01:57;;;;;;;9.85;3.28;;;;;;;;;;4957919;28;20039;-68
2022/09/29 09:04:42;;;;;;;10.23;3.05;;;;;;;;;;4974819;28;20045;-67
2022/09/29 09:07:18;;;;;;;6.97;3.10;;;;;;;;;;4961844;28;20175;-67
2022/09/29 09:09:48;;;;;;;11.02;3.30;;;;;;;;;;4957849;28;20042;-70
2022/09/29 09:12:21;;;;;;;13.70;3.33;;;;;;;;;;4968116;28;20116;-68
2022/09/29 09:14:54;;;;;;;10.27;3.67;;;;;;;;;;4974398;28;20054;-68
2022/09/29 09:17:27;;;;;;;7.07;2.78;;;;;;;;;;4962279;28;20050;-68
2022/09/29 09:20:02;;;;;;;16.00;3.38;;;;;;;;;;4962169;28;20517;-67
2022/09/29 09:22:36;;;;;;;13.10;3.00;;;;;;;;;;4959108;28;20234;-67
2022/09/29 09:25:24;;;;;;;7.93;3.25;;;;;;;;;;4959935;28;20061;-67
2022/09/29 09:27:56;;;;;;;14.13;3.10;;;;;;;;;;4973373;28;20051;-66
2022/09/29 09:30:23;;;;;;;9.30;3.50;;;;;;;;;;4973156;28;20656;-67
2022/09/29 09:32:56;;;;;;;13.75;3.17;;;;;;;;;;4974456;28;20034;-67
2022/09/29 09:35:36;;;;;;;15.25;2.90;;;;;;;;;;4961380;28;20206;-68
2022/09/29 09:38:08;;;;;;;7.70;3.20;;;;;;;;;;4974990;28;20054;-67
2022/09/29 09:40:43;;;;;;;10.90;3.17;;;;;;;;;;5007184;28;20040;-67
2022/09/29 09:43:14;;;;;;;11.68;3.10;;;;;;;;;;5008803;28;20042;-67
2022/09/29 09:45:47;;;;;;;8.77;3.03;;;;;;;;;;5006131;28;20049;-67
2022/09/29 09:48:13;;;;;;;;;;;;;;;;;;4998944;28;20121;-67
2022/09/29 09:50:41;;;;;;;19.00;3.75;;;;;;;;;;5003224;28;19921;-67
2022/09/29 09:53:14;;;;;;;17.15;3.53;;;;;;;;;;5007315;28;20045;-66
2022/09/29 09:55:42;;;;;;;11.25;3.40;;;;;;;;;;5006240;28;20041;-66
2022/09/29 09:58:18;;;;;;;9.73;3.00;;;;;;;;;;5006939;28;20564;-67
2022/09/29 10:00:47;;;;;;;10.05;3.20;;;;;;;;;;5005630;28;20426;-67
2022/09/29 10:03:15;;;;;;;7.32;3.08;;;;;;;;;;5008212;28;20041;-68
2022/09/29 10:05:44;;;;;;;6.25;3.10;;;;;;;;;;5002457;28;20077;-67
2022/09/29 10:08:32;;;;;;;7.75;3.33;;;;;;;;;;5008826;28;20624;-68
2022/09/29 10:10:59;;;;;;;13.88;3.13;;;;;;;;;;5007485;28;20839;-68
2022/09/29 10:13:30;;;;;;;8.77;3.42;;;;;;;;;;5006223;28;20065;-69
2022/09/29 10:16:06;;;;;;;10.98;3.30;;;;;;;;;;4991600;28;20045;-69
2022/09/29 10:18:44;;;;;;;8.20;3.33;;;;;;;;;;5009181;28;20541;-68
2022/09/29 10:21:28;;;;;;;10.32;3.47;;;;;;;;;;5006611;28;20033;-68
2022/09/29 10:24:01;;;;;;;16.30;4.13;;;;;;;;;;5009040;28;20410;-66
2022/09/29 10:26:31;;;;;;;11.18;3.88;;;;;;;;;;4989394;28;20045;-67
2022/09/29 10:29:02;;;;;;;12.60;3.80;;;;;;;;;;5008810;28;20396;-67
2022/09/29 10:31:29;;;;;;;7.63;3.80;;;;;;;;;;5005834;28;20044;-67
2022/09/29 10:33:59;;;;;;;15.77;4.88;;;;;;;;;;5008851;28;20045;-67
2022/09/29 10:36:28;;;;;;;11.32;3.80;;;;;;;;;;5008353;28;20076;-67
2022/09/29 10:38:57;;;;;;;8.95;4.03;;;;;;;;;;5006450;28;20046;-66
2022/09/29 10:41:24;;;;;;;10.20;4.10;;;;;;;;;;5006622;28;22303;-68
2022/09/29 10:43:54;;;;;;;11.18;3.90;;;;;;;;;;5007571;28;20916;-68
2022/09/29 10:46:26;;;;;;;11.07;3.85;;;;;;;;;;5007465;28;20514;-68
2022/09/29 10:49:08;;;;;;;11.27;3.63;;;;;;;;;;5009369;28;20048;-67
2022/09/29 10:51:35;;;;;;;11.07;4.00;;;;;;;;;;5009167;28;20033;-68
2022/09/29 10:54:09;;;;;;;8.63;3.88;;;;;;;;;;5007349;28;20048;-67
2022/09/29 10:56:35;;;;;;;12.93;4.57;;;;;;;;;;5007017;28;20037;-68
2022/09/29 10:59:03;;;;;;;12.45;4.35;;;;;;;;;;4989154;28;20045;-67
2022/09/29 11:01:33;;;;;;;8.02;3.42;;;;;;;;;;5006939;28;20565;-67
2022/09/29 11:04:04;;;;;;;10.88;4.28;;;;;;;;;;5007044;28;20109;-66
2022/09/29 11:06:34;;;;;;;8.75;4.10;;;;;;;;;;5009056;28;20049;-67
2022/09/29 11:09:01;;;;;;;11.23;3.70;;;;;;;;;;5010060;28;20127;-67
2022/09/29 11:11:28;;;;;;;12.93;4.13;;;;;;;;;;5006751;28;20033;-68
2022/09/29 11:13:55;;;;;;;15.68;3.75;;;;;;;;;;4995534;28;20105;-68
2022/09/29 11:16:33;;;;;;;7.72;3.53;;;;;;;;;;5007738;28;20045;-66
2022/09/29 11:19:02;;;;;;;11.18;4.00;;;;;;;;;;5009952;28;20057;-65
2022/09/29 11:21:47;;;;;;;14.40;3.78;;;;;;;;;;5008398;28;20052;-66
2022/09/29 11:24:30;;;;;;;14.93;3.90;;;;;;;;;;5008384;28;20041;-67
2022/09/29 11:27:16;;;;;;;13.77;3.85;;;;;;;;;;4965929;28;20039;-67
2022/09/29 11:29:45;;;;;;;14.52;4.00;;;;;;;;;;4965831;28;20043;-68
2022/09/29 11:32:15;;;;;;;10.65;3.97;;;;;;;;;;4966713;28;20419;-67
2022/09/29 11:35:04;;;;;;;12.68;4.68;;;;;;;;;;4966550;28;20042;-66
2022/09/29 11:37:37;;;;;;;12.05;5.10;;;;;;;;;;4966491;28;20042;-68
2022/09/29 11:40:03;;;;;;;17.43;5.93;;;;;;;;;;4968554;28;20047;-67
2022/09/29 11:42:36;;;;;;;14.95;5.43;;;;;;;;;;4966954;28;20681;-64
2022/09/29 11:45:06;;;;;;;12.05;5.47;;;;;;;;;;4967396;28;20617;-67
2022/09/29 11:47:36;;;;;;;13.07;6.10;;;;;;;;;;4965558;28;20062;-67
2022/09/29 11:50:21;;;;;;;11.02;5.82;;;;;;;;;;4967620;28;20087;-67
2022/09/29 11:53:01;;;;;;;11.02;5.43;;;;;;;;;;4967525;28;20057;-67
2022/09/29 11:55:41;;;;;;;13.55;6.57;;;;;;;;;;4968092;28;20232;-67
2022/09/29 11:58:16;;;;;;;15.77;6.10;;;;;;;;;;4985653;28;20221;-67
2022/09/29 12:01:01;;;;;;;12.40;6.35;;;;;;;;;;5009683;28;20510;-67
2022/09/29 12:03:28;;;;;;;10.00;5.57;;;;;;;;;;5008967;28;20053;-67
2022/09/29 12:05:58;;;;;;;15.63;5.85;;;;;;;;;;5010785;28;20046;-68
2022/09/29 12:08:25;;;;;;;12.40;6.72;;;;;;;;;;4995210;28;20046;-67
2022/09/29 12:11:03;;;;;;;10.25;6.47;;;;;;;;;;5014517;28;20678;-67
2022/09/29 12:13:49;;;;;;;10.05;6.03;;;;;;;;;;5011040;28;20063;-65
2022/09/29 12:16:17;;;;;;;12.88;6.68;;;;;;;;;;5008016;28;20161;-66
2022/09/29 12:18:49;;;;;;;11.80;6.43;;;;;;;;;;5006522;28;20046;-68
2022/09/29 12:21:19;;;;;;;15.02;6.82;;;;;;;;;;5008678;28;20072;-65
2022/09/29 12:23:47;;;;;;;11.52;7.18;;;;;;;;;;5010748;28;20096;-64
2022/09/29 12:26:21;;;;;;;12.38;7.25;;;;;;;;;;5004243;28;20156;-64
2022/09/29 12:28:51;;;;;;;10.45;7.03;;;;;;;;;;5009837;28;20050;-65
2022/09/29 12:31:26;;;;;;;12.18;7.43;;;;;;;;;;5010495;28;20963;-65
2022/09/29 12:34:13;;;;;;;9.70;6.20;;;;;;;;;;5008335;28;20193;-64
2022/09/29 12:36:52;;;;;;;12.02;7.68;;;;;;;;;;5008526;28;20050;-66
2022/09/29 12:39:34;;;;;;;11.57;7.53;;;;;;;;;;5008341;28;20041;-64
2022/09/29 12:42:12;;;;;;;14.70;8.45;;;;;;;;;;5007889;28;20045;-64
2022/09/29 12:45:14;;;;;;;14.50;8.63;;;;;;;;;;5006757;28;20140;-65
2022/09/29 12:47:43;;;;;;;13.55;9.55;;;;;;;;;;4917543;28;20604;-64
2022/09/29 12:50:30;;;;;;;18.27;9.75;;;;;;;;;;4993738;28;20398;-65
2022/09/29 12:52:57;;;;;;;18.02;10.35;;;;;;;;;;5009823;28;20046;-66
2022/09/29 12:55:43;;;;;;;15.07;10.88;;;;;;;;;;5005906;28;20092;-66
2022/09/29 12:58:13;;;;;;;18.70;11.18;;;;;;;;;;5010864;28;20566;-65
2022/09/29 13:00:43;;;;;;;21.00;12.20;;;;;;;;;;5010266;28;20104;-66
2022/09/29 13:03:38;;;;;;;18.83;12.43;;;;;;;;;;5007251;28;20258;-66
2022/09/29 13:06:25;;;;;;;22.67;14.45;;;;;;;;;;5010284;28;20110;-65
2022/09/29 13:08:58;;;;;;;23.02;15.27;;;;;;;;;;4974414;28;20050;-66
2022/09/29 13:11:43;;;;;;;34.03;14.50;;;;;;;;;;5007241;28;20141;-64
2022/09/29 13:14:19;;;;;;;20.98;15.07;;;;;;;;;;5008206;28;20447;-64
2022/09/29 13:17:08;;;;;;;21.88;15.10;;;;;;;;;;5008702;28;20132;-66
2022/09/29 13:19:40;;;;;;;18.92;14.52;;;;;;;;;;5007857;28;20038;-65
2022/09/29 13:22:22;;;;;;;20.05;14.13;;;;;;;;;;5002177;28;20037;-64
2022/09/29 13:25:07;;;;;;;24.08;14.80;;;;;;;;;;5007332;28;20062;-64
2022/09/29 13:27:37;;;;;;;20.13;14.27;;;;;;;;;;5008451;28;20052;-65
2022/09/29 13:30:14;;;;;;;20.55;13.68;;;;;;;;;;5008325;28;20125;-65
2022/09/29 13:32:44;;;;;;;20.85;14.55;;;;;;;;;;5010587;28;20045;-70
2022/09/29 13:35:22;;;;;;;23.25;14.95;;;;;;;;;;5008439;28;20054;-67
2022/09/29 13:37:56;;;;;;;23.20;14.38;;;;;;;;;;5009030;28;20029;-67
2022/09/29 13:40:28;;;;;;;22.15;15.95;;;;;;;;;;5009526;28;20505;-68
2022/09/29 13:42:56;;;;;;;22.35;15.38;;;;;;;;;;5009650;28;20034;-67
2022/09/29 13:45:25;;;;;;;18.73;13.88;;;;;;;;;;5004018;28;20557;-67
2022/09/29 13:47:55;;;;;;;21.85;14.75;;;;;;;;;;5009884;28;20216;-68
2022/09/29 13:50:41;;;;;;;21.65;14.73;;;;;;;;;;4991488;28;20142;-68
2022/09/29 13:53:32;;;;;;;19.42;14.40;;;;;;;;;;5008017;28;20045;-68
2022/09/29 13:56:02;;;;;;;21.88;14.80;;;;;;;;;;4989584;28;20057;-67
2022/09/29 13:58:28;;;;;;;19.98;14.43;;;;;;;;;;5007336;28;20454;-67
2022/09/29 14:00:56;;;;;;;21.13;14.32;;;;;;;;;;4997630;28;20487;-67
2022/09/29 14:03:28;;;;;;;19.92;14.65;;;;;;;;;;4993830;28;20438;-68
2022/09/29 14:05:56;;;;;;;20.75;14.82;;;;;;;;;;4987090;28;20049;-68
2022/09/29 14:08:26;;;;;;;23.10;14.23;;;;;;;;;;5002000;28;20053;-67
2022/09/29 14:11:05;;;;;;;20.13;13.95;;;;;;;;;;5003894;28;20044;-68
2022/09/29 14:13:38;;;;;;;21.08;14.15;;;;;;;;;;5007067;28;20185;-68
2022/09/29 14:16:23;;;;;;;22.02;13.65;;;;;;;;;;5007483;28;20103;-68
2022/09/29 14:18:55;;;;;;;22.42;14.00;;;;;;;;;;5004847;28;20261;-67
2022/09/29 14:21:40;;;;;;;21.65;14.20;;;;;;;;;;5006535;28;20048;-67
2022/09/29 14:24:27;;;;;;;28.95;15.00;;;;;;;;;;5003229;28;20557;-67
2022/09/29 14:26:54;;;;;;;22.95;12.25;;;;;;;;;;5006803;28;20132;-68
2022/09/29 14:29:28;;;;;;;20.65;11.82;;;;;;;;;;5006234;28;20046;-68
2022/09/29 14:31:59;;;;;;;21.90;11.70;;;;;;;;;;5008858;28;20647;-67
2022/09/29 14:34:28;;;;;;;20.70;11.32;;;;;;;;;;5002201;28;20804;-67
2022/09/29 14:36:55;;;;;;;18.23;11.82;;;;;;;;;;5002502;28;20121;-68
2022/09/29 14:39:23;;;;;;;19.63;11.45;;;;;;;;;;5006528;28;20034;-69
2022/09/29 14:41:50;;;;;;;16.25;10.35;;;;;;;;;;5008120;28;20069;-68
2022/09/29 14:44:23;;;;;;;19.92;10.68;;;;;;;;;;5006778;28;20092;-68
2022/09/29 14:52:56;;;;;;;18.60;9.85;;;;;;;;;;5005242;28;20620;-68
2022/09/29 14:55:35;;;;;;;25.58;10.20;;;;;;;;;;4994979;28;20099;-67
2022/09/29 14:58:08;;;;;;;21.45;8.65;;;;;;;;;;4998009;28;20054;-67
2022/09/29 15:00:54;;;;;;;20.20;7.95;;;;;;;;;;5003647;28;20104;-66
2022/09/29 15:03:33;;;;;;;18.77;8.00;;;;;;;;;;5007816;28;20466;-67
2022/09/29 15:06:05;;;;;;;14.85;7.18;;;;;;;;;;5006475;28;20162;-67